Time;durP1;ratioP1;P1;durP2;ratioP2;P2;SDS_P1;SDS_P2;PMS_P1;PMS_P2;Temp;Humidity;BMP_temperature;BMP_pressure;BME280_temperature;BME280_humidity;BME280_pressure;Samples;Min_cycle;Max_cycle;Signal;HPM_P1;HPM_P2
2022/07/06 04:02:38;;;;;;;3.50;3.20;;;17.50;99.90;;;;;;5014351;28;20814;-65
2022/07/06 04:05:05;;;;;;;5.40;3.33;;;17.50;99.90;;;;;;5015562;28;20453;-65
2022/07/06 04:07:32;;;;;;;4.70;3.40;;;17.50;99.90;;;;;;5015653;28;20878;-67
2022/07/06 04:09:59;;;;;;;3.73;3.50;;;17.50;99.90;;;;;;5014505;28;20464;-66
2022/07/06 04:12:26;;;;;;;3.63;3.33;;;17.50;99.90;;;;;;5015113;28;20473;-65
2022/07/06 04:14:53;;;;;;;4.73;3.60;;;17.50;99.90;;;;;;5017926;28;20452;-65
2022/07/06 04:20:06;;;;;;;5.97;3.97;;;17.50;99.90;;;;;;5018070;28;20416;-71
2022/07/06 04:22:33;;;;;;;8.80;3.90;;;17.50;99.90;;;;;;5015712;28;20483;-66
2022/07/06 04:24:59;;;;;;;6.07;3.47;;;17.50;99.90;;;;;;5014595;28;20452;-66
2022/07/06 04:27:26;;;;;;;4.30;3.87;;;17.50;99.90;;;;;;5014182;28;20460;-65
2022/07/06 04:29:54;;;;;;;5.83;4.10;;;17.50;99.90;;;;;;5014383;28;20453;-66
2022/07/06 04:32:20;;;;;;;4.33;3.90;;;17.50;99.90;;;;;;5014360;28;20484;-65
2022/07/06 04:34:47;;;;;;;4.20;3.90;;;17.50;99.90;;;;;;5014089;28;21017;-66
2022/07/06 04:37:15;;;;;;;5.50;4.30;;;17.50;99.90;;;;;;5014635;28;20857;-65
2022/07/06 04:39:42;;;;;;;4.13;3.80;;;17.50;99.90;;;;;;5014344;28;20456;-65
2022/07/06 04:42:09;;;;;;;7.47;4.37;;;17.60;99.90;;;;;;5014289;28;20476;-66
2022/07/06 04:44:35;;;;;;;6.50;4.30;;;17.60;99.90;;;;;;5013821;28;20453;-66
2022/07/06 04:47:02;;;;;;;6.20;4.30;;;17.60;99.90;;;;;;5014066;28;20452;-65
2022/07/06 04:49:29;;;;;;;4.93;3.87;;;17.60;99.90;;;;;;5014209;28;20473;-65
2022/07/06 04:51:56;;;;;;;4.63;4.17;;;17.70;99.90;;;;;;5013834;28;20479;-65
2022/07/06 04:54:24;;;;;;;4.27;3.97;;;17.70;99.90;;;;;;5014286;28;20530;-65
2022/07/06 04:56:51;;;;;;;6.63;5.47;;;17.80;99.90;;;;;;5014178;28;20817;-66
2022/07/06 04:59:17;;;;;;;4.90;4.20;;;17.80;99.90;;;;;;5014445;28;20460;-66
2022/07/06 05:01:44;;;;;;;5.20;4.70;;;17.80;99.90;;;;;;5013949;28;20484;-65
2022/07/06 05:04:11;;;;;;;5.77;4.50;;;17.90;99.90;;;;;;5014011;28;20457;-67
2022/07/06 05:06:37;;;;;;;4.70;4.27;;;17.90;99.90;;;;;;5014589;28;20457;-65
2022/07/06 05:09:04;;;;;;;4.70;4.20;;;17.90;99.90;;;;;;5014453;28;20487;-66
2022/07/06 05:11:32;;;;;;;10.20;4.30;;;18.00;99.90;;;;;;5014572;28;20475;-66
2022/07/06 05:13:59;;;;;;;4.27;4.00;;;18.00;99.90;;;;;;5014133;28;20457;-65
2022/07/06 05:16:26;;;;;;;4.67;4.27;;;18.10;99.90;;;;;;5013876;28;20452;-65
2022/07/06 05:18:53;;;;;;;5.07;4.70;;;18.10;99.90;;;;;;5014612;28;20548;-65
2022/07/06 05:21:19;;;;;;;7.07;4.40;;;18.30;99.90;;;;;;5014819;28;20476;-66
2022/07/06 05:23:46;;;;;;;4.30;3.93;;;18.40;99.90;;;;;;5014981;28;20468;-66
2022/07/06 05:26:13;;;;;;;7.43;4.00;;;18.50;99.90;;;;;;5016606;28;20457;-66
2022/07/06 05:28:41;;;;;;;6.17;4.43;;;18.60;99.90;;;;;;5026715;28;20476;-66
2022/07/06 05:31:07;;;;;;;6.90;4.20;;;18.70;99.90;;;;;;5019924;28;20469;-65
2022/07/06 05:33:34;;;;;;;4.40;4.00;;;18.80;99.90;;;;;;5015285;28;20453;-66
2022/07/06 05:36:01;;;;;;;4.60;4.20;;;18.90;99.90;;;;;;5014440;28;20938;-66
2022/07/06 05:38:28;;;;;;;5.60;5.03;;;19.00;99.90;;;;;;5014353;28;20948;-65
2022/07/06 05:40:55;;;;;;;4.00;3.60;;;19.10;99.90;;;;;;5015063;28;20484;-66
2022/07/06 05:43:21;;;;;;;4.40;4.00;;;19.00;99.90;;;;;;5014670;28;20460;-66
2022/07/06 05:45:49;;;;;;;5.90;3.70;;;19.20;99.90;;;;;;5014274;28;20449;-66
2022/07/06 05:51:00;;;;;;;6.40;4.07;;;19.50;99.90;;;;;;5014313;28;20457;-66
2022/07/06 05:53:27;;;;;;;4.00;3.53;;;19.60;99.90;;;;;;5014488;28;20452;-66
2022/07/06 05:55:54;;;;;;;4.53;3.60;;;19.70;99.90;;;;;;5014281;28;20452;-65
2022/07/06 05:58:20;;;;;;;6.97;3.50;;;19.80;99.90;;;;;;5018273;28;20793;-65
2022/07/06 06:00:48;;;;;;;6.73;3.77;;;19.90;99.90;;;;;;5017842;28;20489;-65
2022/07/06 06:03:15;;;;;;;4.23;3.80;;;20.10;99.90;;;;;;5017890;28;20437;-66
2022/07/06 06:05:42;;;;;;;10.27;4.13;;;20.00;99.90;;;;;;5017674;28;20453;-65
2022/07/06 06:08:09;;;;;;;7.50;3.87;;;20.10;99.90;;;;;;5017488;28;21075;-65
2022/07/06 06:10:36;;;;;;;4.10;3.80;;;20.20;99.90;;;;;;5017420;28;20476;-65
2022/07/06 06:13:02;;;;;;;3.80;3.50;;;20.20;99.90;;;;;;5017553;28;20514;-65
2022/07/06 06:15:29;;;;;;;4.13;3.03;;;20.30;99.90;;;;;;5017943;28;20479;-67
2022/07/06 06:17:57;;;;;;;3.90;3.50;;;20.40;99.90;;;;;;5017978;28;20456;-66
2022/07/06 06:20:24;;;;;;;3.97;3.73;;;20.40;99.90;;;;;;5017215;28;20456;-67
2022/07/06 06:22:52;;;;;;;3.90;3.43;;;20.40;99.90;;;;;;5017695;28;20456;-66
2022/07/06 06:25:21;;;;;;;4.53;4.00;;;20.50;99.90;;;;;;5017659;28;20793;-66
2022/07/06 06:27:48;;;;;;;5.20;3.90;;;20.50;99.90;;;;;;5017138;28;20449;-67
2022/07/06 06:30:15;;;;;;;3.87;3.53;;;20.50;99.90;;;;;;5016849;28;20500;-67
2022/07/06 06:32:42;;;;;;;3.60;3.30;;;20.70;99.90;;;;;;5017050;28;20467;-66
2022/07/06 06:35:10;;;;;;;7.20;3.50;;;20.70;99.90;;;;;;5016861;28;20507;-66
2022/07/06 06:37:37;;;;;;;3.80;3.60;;;20.60;99.90;;;;;;5017118;28;20457;-66
2022/07/06 06:40:05;;;;;;;10.80;3.53;;;20.70;99.90;;;;;;5016706;28;20459;-66
2022/07/06 06:42:32;;;;;;;3.60;3.37;;;20.80;99.90;;;;;;5017726;28;20864;-65
2022/07/06 06:44:59;;;;;;;4.00;3.70;;;20.90;99.90;;;;;;5017990;28;20453;-65
2022/07/06 06:47:25;;;;;;;3.60;3.30;;;20.90;99.90;;;;;;5017683;28;20479;-67
2022/07/06 06:49:52;;;;;;;3.60;3.30;;;21.00;99.90;;;;;;5016272;28;20477;-66
2022/07/06 06:52:20;;;;;;;3.93;3.60;;;21.10;99.90;;;;;;5016105;28;20480;-65
2022/07/06 06:54:48;;;;;;;4.40;4.10;;;21.40;99.90;;;;;;5016356;28;20437;-65
2022/07/06 06:57:14;;;;;;;4.10;3.80;;;21.70;99.90;;;;;;5015963;28;20486;-65
2022/07/06 06:59:41;;;;;;;7.53;3.53;;;22.00;99.90;;;;;;5016014;28;20453;-66
2022/07/06 07:02:08;;;;;;;7.60;3.30;;;22.20;99.80;;;;;;5016118;28;20484;-66
2022/07/06 07:04:34;;;;;;;4.13;3.20;;;22.40;99.70;;;;;;5015774;28;20445;-66
2022/07/06 07:07:01;;;;;;;4.60;3.33;;;22.60;99.50;;;;;;5015171;28;20947;-66
2022/07/06 07:09:29;;;;;;;4.07;3.20;;;23.00;99.00;;;;;;5015611;28;20472;-66
2022/07/06 07:11:56;;;;;;;3.73;3.43;;;23.40;98.00;;;;;;5015615;28;20476;-65
2022/07/06 07:14:22;;;;;;;3.77;3.47;;;23.90;96.30;;;;;;5015861;28;20453;-66
2022/07/06 07:16:49;;;;;;;3.70;3.40;;;24.40;94.70;;;;;;5015276;28;20932;-66
2022/07/06 07:19:16;;;;;;;3.90;2.83;;;24.70;93.00;;;;;;5015431;28;20457;-66
2022/07/06 07:21:42;;;;;;;5.07;3.30;;;25.10;93.10;;;;;;5015304;28;20983;-66
2022/07/06 07:24:09;;;;;;;5.63;3.07;;;25.60;90.80;;;;;;5015820;28;20526;-65
2022/07/06 07:26:37;;;;;;;5.37;3.13;;;26.00;88.40;;;;;;5015833;28;20452;-65
2022/07/06 07:29:04;;;;;;;7.37;2.80;;;26.40;87.90;;;;;;5015601;28;20481;-66
2022/07/06 07:31:31;;;;;;;3.10;2.90;;;26.70;84.10;;;;;;5015148;28;20480;-65
2022/07/06 07:33:58;;;;;;;3.33;3.13;;;27.00;83.40;;;;;;5015559;28;20453;-66
2022/07/06 07:36:25;;;;;;;6.67;3.60;;;27.20;80.60;;;;;;5015401;28;20456;-66
2022/07/06 07:38:52;;;;;;;5.00;3.10;;;27.40;79.80;;;;;;5015292;28;20449;-66
2022/07/06 07:41:19;;;;;;;3.57;3.27;;;27.40;77.90;;;;;;5014763;28;20515;-66
2022/07/06 07:43:47;;;;;;;7.50;3.40;;;27.40;78.70;;;;;;5015053;28;20463;-66
2022/07/06 07:46:13;;;;;;;3.50;3.17;;;27.30;76.20;;;;;;5015038;28;20479;-65
2022/07/06 07:48:40;;;;;;;3.83;2.80;;;27.20;76.40;;;;;;5014904;28;20480;-66
2022/07/06 07:51:07;;;;;;;5.23;3.60;;;27.50;79.80;;;;;;5014928;28;20483;-65
2022/07/06 07:53:35;;;;;;;2.90;2.60;;;27.80;76.60;;;;;;5015062;28;20479;-66
2022/07/06 07:56:02;;;;;;;4.43;3.30;;;28.00;75.70;;;;;;5015152;28;20464;-66
2022/07/06 07:58:28;;;;;;;4.87;3.00;;;28.10;74.90;;;;;;5015806;28;20457;-65
2022/07/06 08:00:56;;;;;;;4.03;2.87;;;28.70;76.20;;;;;;5014763;28;21014;-66
2022/07/06 08:03:23;;;;;;;2.67;2.53;;;29.10;72.20;;;;;;5015169;28;20504;-65
2022/07/06 08:05:50;;;;;;;5.33;2.53;;;29.50;69.70;;;;;;5015416;28;20939;-66
2022/07/06 08:08:17;;;;;;;2.40;2.30;;;29.50;70.70;;;;;;5015341;28;20944;-66
2022/07/06 08:10:44;;;;;;;3.73;2.90;;;29.50;70.80;;;;;;5015204;28;20481;-67
2022/07/06 08:13:11;;;;;;;3.77;3.47;;;29.60;68.60;;;;;;5015268;28;20483;-66
2022/07/06 08:15:38;;;;;;;3.00;2.80;;;29.90;66.20;;;;;;5015557;28;20492;-67
2022/07/06 08:18:06;;;;;;;5.90;3.23;;;29.60;67.30;;;;;;5014982;28;20503;-66
2022/07/06 08:20:33;;;;;;;2.67;2.47;;;29.60;65.10;;;;;;5014618;28;20540;-66
2022/07/06 08:22:59;;;;;;;3.40;3.10;;;29.60;66.10;;;;;;5015241;28;20457;-66
2022/07/06 08:25:26;;;;;;;2.93;2.73;;;29.50;63.70;;;;;;5019052;28;20514;-66
2022/07/06 08:27:52;;;;;;;3.33;2.90;;;29.40;65.30;;;;;;5019199;28;20863;-66
2022/07/06 08:30:19;;;;;;;6.10;2.90;;;29.30;64.40;;;;;;5014620;28;20481;-67
2022/07/06 08:32:46;;;;;;;3.17;2.97;;;29.20;66.20;;;;;;5015147;28;20457;-66
2022/07/06 08:35:15;;;;;;;3.00;2.80;;;29.50;65.20;;;;;;5015148;28;20448;-66
2022/07/06 08:37:41;;;;;;;3.17;2.93;;;29.20;64.70;;;;;;5014622;28;20526;-66
2022/07/06 08:40:11;;;;;;;4.00;3.03;;;29.60;63.10;;;;;;5014800;28;20453;-65
2022/07/06 08:42:37;;;;;;;3.00;2.73;;;29.90;64.40;;;;;;5014118;28;20943;-66
2022/07/06 08:45:07;;;;;;;7.87;3.40;;;29.90;63.60;;;;;;5014341;28;20449;-66
2022/07/06 08:47:37;;;;;;;3.37;2.60;;;29.40;63.70;;;;;;5014379;28;20453;-66
2022/07/06 08:50:04;;;;;;;5.87;2.50;;;29.90;65.20;;;;;;5014285;28;20498;-66
2022/07/06 08:52:33;;;;;;;3.37;2.53;;;30.40;62.90;;;;;;5014264;28;20473;-66
2022/07/06 08:55:00;;;;;;;3.57;3.27;;;30.10;65.30;;;;;;5014123;28;20467;-66
2022/07/06 08:57:28;;;;;;;4.87;3.50;;;30.10;64.30;;;;;;5014095;28;20464;-66
2022/07/06 08:59:54;;;;;;;3.47;3.17;;;30.50;60.90;;;;;;5014147;28;20488;-66
2022/07/06 09:02:25;;;;;;;5.20;3.43;;;30.40;62.80;;;;;;5013878;28;20484;-65
2022/07/06 09:04:55;;;;;;;3.10;2.60;;;30.40;61.10;;;;;;5014245;28;20464;-66
2022/07/06 09:07:23;;;;;;;5.17;2.80;;;30.70;63.90;;;;;;5014117;28;20935;-66
2022/07/06 09:09:53;;;;;;;3.80;3.00;;;30.60;60.00;;;;;;5014000;28;20476;-66
2022/07/06 09:12:20;;;;;;;5.37;2.40;;;30.60;59.50;;;;;;5013959;28;20984;-66
2022/07/06 09:14:47;;;;;;;3.33;2.43;;;31.00;63.10;;;;;;5014263;28;20461;-66
2022/07/06 09:17:14;;;;;;;3.97;2.87;;;31.40;60.80;;;;;;5019389;28;20964;-67
2022/07/06 09:19:40;;;;;;;4.20;3.43;;;31.40;62.00;;;;;;5030048;28;20425;-66
2022/07/06 09:22:07;;;;;;;2.57;2.47;;;31.20;60.10;;;;;;5016297;28;20523;-68
2022/07/06 09:24:42;;;;;;;3.43;3.13;;;31.30;59.20;;;;;;5014581;28;20794;-67
2022/07/06 09:27:17;;;;;;;2.47;2.37;;;31.10;58.30;;;;;;5014902;28;20436;-67
2022/07/06 09:29:46;;;;;;;4.03;3.37;;;31.50;57.60;;;;;;5015234;28;20492;-66
2022/07/06 09:32:14;;;;;;;3.07;2.90;;;31.90;57.90;;;;;;5018736;28;20484;-66
2022/07/06 09:34:43;;;;;;;3.03;2.83;;;32.20;57.60;;;;;;5019232;28;20459;-66
2022/07/06 09:37:10;;;;;;;2.70;2.47;;;32.50;56.20;;;;;;5019711;28;20464;-66
2022/07/06 09:39:37;;;;;;;3.07;2.87;;;32.90;57.50;;;;;;5017724;28;21026;-67
2022/07/06 09:42:07;;;;;;;2.73;2.53;;;32.80;54.10;;;;;;5018159;28;20480;-67
2022/07/06 09:44:38;;;;;;;2.90;2.70;;;33.20;55.20;;;;;;5018239;28;20531;-67
2022/07/06 09:47:06;;;;;;;3.03;2.67;;;33.40;54.40;;;;;;5018367;28;20437;-67
2022/07/06 09:49:34;;;;;;;6.50;2.60;;;33.10;55.10;;;;;;5018069;28;20480;-66
2022/07/06 09:52:02;;;;;;;2.33;2.13;;;33.10;55.70;;;;;;5017990;28;20472;-67
2022/07/06 09:54:29;;;;;;;2.67;2.47;;;32.80;55.60;;;;;;5017734;28;20456;-68
2022/07/06 09:56:57;;;;;;;4.50;2.70;;;32.20;56.70;;;;;;5018127;28;20789;-68
2022/07/06 09:59:26;;;;;;;2.57;2.37;;;32.00;58.50;;;;;;5018394;28;20479;-67
2022/07/06 10:01:56;;;;;;;3.57;2.77;;;31.90;58.10;;;;;;5017593;28;20489;-66
2022/07/06 10:04:24;;;;;;;5.17;2.73;;;32.20;57.40;;;;;;5018036;28;20447;-67
2022/07/06 10:06:51;;;;;;;2.50;2.30;;;32.10;55.40;;;;;;5022822;28;20452;-67
2022/07/06 10:09:20;;;;;;;3.27;2.90;;;32.40;55.10;;;;;;5031492;28;20452;-67
2022/07/06 10:11:50;;;;;;;3.00;2.80;;;32.40;54.20;;;;;;5017652;28;20483;-66
2022/07/06 10:14:19;;;;;;;6.17;3.60;;;32.00;54.60;;;;;;5017359;28;20818;-66
2022/07/06 10:16:46;;;;;;;3.50;2.53;;;31.50;56.20;;;;;;5016988;28;20866;-67
2022/07/06 10:19:16;;;;;;;6.13;2.90;;;31.60;58.90;;;;;;5017495;28;20456;-66
2022/07/06 10:21:44;;;;;;;5.33;3.00;;;31.70;56.00;;;;;;5017977;28;20552;-67
2022/07/06 10:24:12;;;;;;;2.90;2.70;;;31.80;56.10;;;;;;5017773;28;20453;-66
2022/07/06 10:26:39;;;;;;;3.23;3.00;;;31.50;56.40;;;;;;5017345;28;21045;-66
2022/07/06 10:29:07;;;;;;;7.93;2.40;;;30.80;57.60;;;;;;5017699;28;20453;-68
2022/07/06 10:31:37;;;;;;;6.33;2.80;;;31.20;57.10;;;;;;5018760;28;20488;-67
2022/07/06 10:34:07;;;;;;;2.90;2.53;;;31.60;56.30;;;;;;5018644;28;20496;-67
2022/07/06 10:36:39;;;;;;;3.20;3.00;;;31.90;57.10;;;;;;5017147;28;20548;-67
2022/07/06 10:41:47;;;;;;;3.43;2.90;;;32.00;53.90;;;;;;5016508;28;20457;-66
2022/07/06 10:44:18;;;;;;;4.33;2.60;;;32.10;55.60;;;;;;5017306;28;20441;-66
2022/07/06 10:46:52;;;;;;;2.80;2.60;;;32.40;55.10;;;;;;5021438;28;20804;-67
2022/07/06 10:49:19;;;;;;;4.53;3.27;;;32.80;54.20;;;;;;5017765;28;20480;-66
2022/07/06 10:51:48;;;;;;;12.10;3.57;;;32.90;52.20;;;;;;5017662;28;20473;-67
2022/07/06 10:54:16;;;;;;;3.33;2.40;;;33.10;54.70;;;;;;5017263;28;20453;-66
2022/07/06 10:56:45;;;;;;;4.40;2.50;;;32.30;53.70;;;;;;5018166;28;20479;-67
2022/07/06 10:59:13;;;;;;;3.60;2.80;;;31.90;55.40;;;;;;5016979;28;20944;-67
2022/07/06 11:01:40;;;;;;;2.97;2.77;;;31.70;56.90;;;;;;5016091;28;20481;-66
2022/07/06 11:04:09;;;;;;;3.17;2.90;;;32.00;56.10;;;;;;5017213;28;20461;-67
2022/07/06 11:06:37;;;;;;;4.13;2.43;;;32.10;55.50;;;;;;5016307;28;20460;-67
2022/07/06 11:09:07;;;;;;;3.57;2.30;;;32.50;54.70;;;;;;5016720;28;20459;-67
2022/07/06 11:11:43;;;;;;;4.53;2.73;;;32.60;55.10;;;;;;5016782;28;20507;-67
2022/07/06 11:14:11;;;;;;;3.80;3.20;;;32.40;53.70;;;;;;5016466;28;20440;-67
2022/07/06 11:16:40;;;;;;;3.13;2.40;;;32.40;54.60;;;;;;5016260;28;20448;-66
2022/07/06 11:19:12;;;;;;;3.03;2.73;;;32.10;56.30;;;;;;5016253;28;20480;-66
2022/07/06 11:21:41;;;;;;;3.60;3.20;;;31.90;55.40;;;;;;5016221;28;20499;-67
2022/07/06 11:24:11;;;;;;;3.60;2.80;;;31.50;54.90;;;;;;5016051;28;20452;-66
2022/07/06 11:26:38;;;;;;;5.33;2.77;;;31.40;56.10;;;;;;5016178;28;20441;-66
2022/07/06 11:29:07;;;;;;;6.40;3.50;;;30.80;55.80;;;;;;5016433;28;20479;-66
2022/07/06 11:31:36;;;;;;;3.20;2.77;;;30.10;57.30;;;;;;5016248;28;20489;-66
2022/07/06 11:34:03;;;;;;;7.10;3.10;;;30.10;57.60;;;;;;5018569;28;20543;-67
2022/07/06 11:36:30;;;;;;;3.13;2.80;;;29.80;57.50;;;;;;5017912;28;20456;-66
2022/07/06 11:38:57;;;;;;;4.47;2.77;;;29.20;58.80;;;;;;5017185;28;20457;-66
2022/07/06 11:41:26;;;;;;;5.03;3.30;;;29.10;59.80;;;;;;5015601;28;20473;-66
2022/07/06 11:43:53;;;;;;;2.90;2.70;;;28.80;59.10;;;;;;5016415;28;20456;-67
2022/07/06 11:46:21;;;;;;;3.50;3.20;;;28.70;62.40;;;;;;5016263;28;20453;-67
2022/07/06 11:48:48;;;;;;;5.93;3.10;;;28.70;61.20;;;;;;5015878;28;20463;-66
2022/07/06 11:51:16;;;;;;;4.23;2.50;;;28.70;62.30;;;;;;5015561;28;20485;-66
2022/07/06 11:53:45;;;;;;;3.00;2.80;;;28.90;60.80;;;;;;5014975;28;20544;-67
2022/07/06 11:56:12;;;;;;;5.00;3.13;;;28.90;62.20;;;;;;5015731;28;20940;-67
2022/07/06 11:58:42;;;;;;;6.93;4.23;;;29.00;61.00;;;;;;5016132;28;20452;-67
2022/07/06 12:01:10;;;;;;;5.57;3.27;;;28.80;61.90;;;;;;5015730;28;20512;-69
2022/07/06 12:03:37;;;;;;;4.03;3.43;;;28.80;62.00;;;;;;5015538;28;20459;-67
2022/07/06 12:06:04;;;;;;;4.10;3.60;;;28.90;60.30;;;;;;5015478;28;20481;-66
2022/07/06 12:08:31;;;;;;;6.63;3.50;;;28.30;60.10;;;;;;5015231;28;20457;-66
2022/07/06 12:10:58;;;;;;;3.53;3.20;;;27.90;60.50;;;;;;5015243;28;20484;-66
2022/07/06 12:13:24;;;;;;;7.47;3.23;;;27.70;64.00;;;;;;5016027;28;20461;-66
2022/07/06 12:15:52;;;;;;;3.53;3.33;;;27.50;61.00;;;;;;5015178;28;20456;-66
2022/07/06 12:18:19;;;;;;;4.90;3.20;;;27.60;64.30;;;;;;5015279;28;20976;-66
2022/07/06 12:20:46;;;;;;;8.57;3.40;;;27.80;64.10;;;;;;5015518;28;20547;-66
2022/07/06 12:23:13;;;;;;;6.67;3.43;;;28.10;62.30;;;;;;5016148;28;20460;-67
2022/07/06 12:25:39;;;;;;;5.50;2.80;;;28.70;61.40;;;;;;5015055;28;20510;-67
2022/07/06 12:28:07;;;;;;;6.97;4.13;;;28.60;60.20;;;;;;5014946;28;20455;-66
2022/07/06 12:30:34;;;;;;;3.57;3.23;;;28.70;60.40;;;;;;5015107;28;20550;-67
2022/07/06 12:33:18;;;;;;;9.10;4.10;;;28.50;61.20;;;;;;5014912;28;20459;-66
2022/07/06 12:35:45;;;;;;;6.33;3.13;;;28.30;61.10;;;;;;5014854;28;20463;-67
2022/07/06 12:38:12;;;;;;;3.50;3.20;;;28.00;62.00;;;;;;5015129;28;20453;-67
2022/07/06 12:40:39;;;;;;;4.37;3.17;;;27.80;62.00;;;;;;5014935;28;20475;-66
2022/07/06 12:43:06;;;;;;;4.60;3.90;;;27.50;62.80;;;;;;5014857;28;20457;-69
2022/07/06 12:45:33;;;;;;;3.37;3.17;;;27.30;62.40;;;;;;5014420;28;20452;-66
2022/07/06 12:48:01;;;;;;;6.70;2.90;;;27.00;62.80;;;;;;5015324;28;20464;-66
2022/07/06 12:50:36;;;;;;;3.13;2.67;;;26.80;62.40;;;;;;5014893;28;20477;-67
2022/07/06 12:53:05;;;;;;;2.63;2.43;;;26.80;64.20;;;;;;5015143;28;20452;-66
2022/07/06 12:55:32;;;;;;;3.20;2.90;;;27.00;67.40;;;;;;5015380;28;20835;-67
2022/07/06 12:57:59;;;;;;;5.17;2.93;;;27.30;63.40;;;;;;5015298;28;20456;-67
2022/07/06 13:00:26;;;;;;;3.80;2.63;;;27.50;64.00;;;;;;5014884;28;20476;-67
2022/07/06 13:02:55;;;;;;;13.73;3.40;;;27.90;63.70;;;;;;5015173;28;20827;-67
2022/07/06 13:05:28;;;;;;;3.10;2.90;;;28.20;63.10;;;;;;5015584;28;20456;-66
2022/07/06 13:07:57;;;;;;;4.70;3.10;;;28.10;60.20;;;;;;5018266;28;20511;-66
2022/07/06 13:10:25;;;;;;;14.53;3.07;;;28.00;61.50;;;;;;5018567;28;20488;-67
2022/07/06 13:12:51;;;;;;;3.13;2.70;;;28.20;61.70;;;;;;5018342;28;20452;-66
2022/07/06 13:15:18;;;;;;;2.90;2.70;;;28.20;60.90;;;;;;5018982;28;20791;-66
2022/07/06 13:17:45;;;;;;;2.77;2.57;;;28.50;60.90;;;;;;5018131;28;20452;-65
2022/07/06 13:20:13;;;;;;;6.77;2.60;;;28.60;60.70;;;;;;5017673;28;20816;-64
2022/07/06 13:22:40;;;;;;;2.60;2.40;;;28.80;61.40;;;;;;5018086;28;20452;-66
2022/07/06 13:25:09;;;;;;;4.27;2.37;;;29.20;62.10;;;;;;5017836;28;20457;-66
2022/07/06 13:27:36;;;;;;;3.33;2.60;;;29.10;59.10;;;;;;5018394;28;20460;-66
2022/07/06 13:30:03;;;;;;;6.33;2.37;;;28.90;58.70;;;;;;5017681;28;20452;-66
2022/07/06 13:32:30;;;;;;;3.23;2.47;;;28.70;59.20;;;;;;5017407;28;20532;-66
2022/07/06 13:34:57;;;;;;;3.23;2.60;;;28.20;58.90;;;;;;5017751;28;20461;-66
2022/07/06 13:37:23;;;;;;;3.30;2.47;;;28.00;59.80;;;;;;5017820;28;20453;-65
2022/07/06 13:39:50;;;;;;;6.23;3.00;;;27.50;60.20;;;;;;5017455;28;20820;-65
2022/07/06 13:42:18;;;;;;;3.13;2.90;;;27.40;63.00;;;;;;5017751;28;20835;-65
2022/07/06 13:44:45;;;;;;;10.50;4.33;;;27.50;62.90;;;;;;5017699;28;20457;-65
2022/07/06 13:47:12;;;;;;;4.83;2.83;;;27.50;59.70;;;;;;5017613;28;20543;-65
2022/07/06 13:49:39;;;;;;;3.03;2.70;;;27.60;61.40;;;;;;5017932;28;20482;-65
2022/07/06 13:52:06;;;;;;;4.97;2.77;;;27.90;60.90;;;;;;5017513;28;20484;-66
2022/07/06 13:54:34;;;;;;;3.93;2.60;;;28.00;58.50;;;;;;5017390;28;20464;-65
2022/07/06 13:57:04;;;;;;;4.10;2.37;;;28.10;59.80;;;;;;5017707;28;20543;-65
2022/07/06 13:59:32;;;;;;;3.53;2.27;;;28.10;59.10;;;;;;5021950;28;20849;-65
2022/07/06 14:01:59;;;;;;;4.80;2.30;;;28.00;60.40;;;;;;5029011;28;20481;-65
2022/07/06 14:04:26;;;;;;;2.20;2.10;;;27.90;59.40;;;;;;5018149;28;20456;-65
2022/07/06 14:06:52;;;;;;;2.57;2.37;;;27.90;60.20;;;;;;5017143;28;20555;-65
2022/07/06 14:09:19;;;;;;;3.23;2.30;;;27.90;60.00;;;;;;5017167;28;20475;-65
2022/07/06 14:11:46;;;;;;;2.63;2.40;;;28.00;60.80;;;;;;5017342;28;20877;-65
2022/07/06 14:14:14;;;;;;;3.70;2.57;;;28.10;60.60;;;;;;5017361;28;20457;-65
2022/07/06 14:16:42;;;;;;;3.40;2.53;;;28.00;58.80;;;;;;5016264;28;20480;-66
2022/07/06 14:19:09;;;;;;;2.47;2.27;;;27.80;58.60;;;;;;5016607;28;20452;-65
2022/07/06 14:21:36;;;;;;;5.17;2.20;;;27.50;58.80;;;;;;5016800;28;20468;-67
2022/07/06 14:24:03;;;;;;;2.80;2.20;;;27.20;59.80;;;;;;5016760;28;20453;-65
2022/07/06 14:26:30;;;;;;;3.20;2.30;;;27.30;61.60;;;;;;5016953;28;20808;-66
2022/07/06 14:28:57;;;;;;;2.23;2.13;;;27.50;61.50;;;;;;5016764;28;20452;-66
2022/07/06 14:31:23;;;;;;;6.33;2.43;;;27.70;59.90;;;;;;5016736;28;20473;-66
2022/07/06 14:33:51;;;;;;;3.63;2.40;;;27.70;59.20;;;;;;5016617;28;20461;-65
2022/07/06 14:36:18;;;;;;;6.00;2.37;;;27.60;58.70;;;;;;5017151;28;20511;-65
2022/07/06 14:38:45;;;;;;;2.23;2.13;;;27.60;59.70;;;;;;5017181;28;20820;-65
2022/07/06 14:41:12;;;;;;;2.57;2.37;;;27.70;59.40;;;;;;5016978;28;20802;-66
2022/07/06 14:43:38;;;;;;;2.37;2.17;;;27.70;59.00;;;;;;5016692;28;20453;-66
2022/07/06 14:46:05;;;;;;;2.53;2.17;;;27.70;59.20;;;;;;5016592;28;20457;-65
2022/07/06 14:48:32;;;;;;;2.10;2.00;;;27.90;59.90;;;;;;5016251;28;20457;-65
2022/07/06 14:51:00;;;;;;;3.40;3.00;;;27.70;58.60;;;;;;5016028;28;20480;-65
2022/07/06 14:53:27;;;;;;;2.40;2.30;;;27.70;58.40;;;;;;5016034;28;20452;-65
2022/07/06 14:55:53;;;;;;;2.60;2.40;;;27.60;59.00;;;;;;5016135;28;20499;-65
2022/07/06 14:58:22;;;;;;;2.50;2.17;;;27.70;59.00;;;;;;5015926;28;20461;-65
2022/07/06 15:00:49;;;;;;;5.73;2.13;;;27.60;58.30;;;;;;5015545;28;21054;-64
2022/07/06 15:03:15;;;;;;;2.17;2.00;;;27.50;58.40;;;;;;5016016;28;20456;-65
2022/07/06 15:05:45;;;;;;;3.67;2.10;;;27.40;58.70;;;;;;5016831;28;20457;-66
2022/07/06 15:08:15;;;;;;;3.03;2.23;;;27.30;59.10;;;;;;5016358;28;20461;-66
2022/07/06 15:10:42;;;;;;;3.90;2.53;;;27.20;58.90;;;;;;5015543;28;20508;-66
2022/07/06 15:13:08;;;;;;;2.47;2.27;;;27.10;59.30;;;;;;5015878;28;20457;-66
2022/07/06 15:15:36;;;;;;;2.20;2.10;;;27.00;58.70;;;;;;5015712;28;20457;-65
2022/07/06 15:18:03;;;;;;;2.37;2.17;;;27.10;60.60;;;;;;5015851;28;20491;-66
2022/07/06 15:20:29;;;;;;;2.53;2.33;;;27.00;58.80;;;;;;5017554;28;20452;-66
2022/07/06 15:22:56;;;;;;;2.27;2.17;;;27.00;58.70;;;;;;5015279;28;20449;-66
2022/07/06 15:25:24;;;;;;;2.33;2.20;;;27.00;56.80;;;;;;5015266;28;20453;-66
2022/07/06 15:27:51;;;;;;;3.87;2.10;;;26.70;58.30;;;;;;5015413;28;20491;-65
2022/07/06 15:30:19;;;;;;;2.30;2.10;;;26.60;58.80;;;;;;5015287;28;20511;-66
2022/07/06 15:32:45;;;;;;;2.30;2.20;;;26.40;59.00;;;;;;5015273;28;20991;-66
2022/07/06 15:35:12;;;;;;;2.13;1.87;;;26.20;58.10;;;;;;5015377;28;20460;-66
2022/07/06 15:37:40;;;;;;;2.90;2.40;;;26.10;58.80;;;;;;5016247;28;20477;-66
2022/07/06 15:40:11;;;;;;;3.00;2.80;;;26.00;59.20;;;;;;5015118;28;20453;-66
2022/07/06 15:42:40;;;;;;;2.53;2.07;;;25.80;59.40;;;;;;5014952;28;20896;-66
2022/07/06 15:45:07;;;;;;;2.30;2.10;;;25.70;59.60;;;;;;5015345;28;20449;-67
2022/07/06 15:47:34;;;;;;;4.80;2.00;;;25.40;59.30;;;;;;5015283;28;20464;-66
2022/07/06 15:50:01;;;;;;;2.20;2.10;;;25.30;60.30;;;;;;5015086;28;20515;-66
2022/07/06 15:52:28;;;;;;;2.33;2.10;;;25.10;60.50;;;;;;5014986;28;20477;-66
2022/07/06 15:54:55;;;;;;;1.67;1.57;;;25.00;60.00;;;;;;5014808;28;20460;-66
2022/07/06 15:57:21;;;;;;;2.07;2.03;;;24.90;65.30;;;;;;5014973;28;20911;-65
2022/07/06 15:59:49;;;;;;;2.40;2.20;;;24.70;66.30;;;;;;5014937;28;20457;-65
2022/07/06 16:02:19;;;;;;;2.43;2.33;;;24.70;63.90;;;;;;5014376;28;21020;-66
2022/07/06 16:04:45;;;;;;;1.97;1.80;;;24.70;62.80;;;;;;5014816;28;20487;-66
2022/07/06 16:07:12;;;;;;;2.10;1.93;;;24.80;62.70;;;;;;5014850;28;20453;-65
2022/07/06 16:09:39;;;;;;;3.90;2.30;;;24.80;62.20;;;;;;5014753;28;20456;-65
2022/07/06 16:12:08;;;;;;;2.47;1.97;;;24.90;62.30;;;;;;5014782;28;20480;-66
2022/07/06 16:14:34;;;;;;;1.90;1.80;;;24.90;61.70;;;;;;5014556;28;20457;-64
2022/07/06 16:17:02;;;;;;;2.00;1.90;;;24.90;60.40;;;;;;5014766;28;20453;-66
2022/07/06 16:19:29;;;;;;;1.93;1.70;;;24.90;59.70;;;;;;5014448;28;20452;-66
2022/07/06 16:21:56;;;;;;;6.93;2.63;;;24.90;60.60;;;;;;5014380;28;20472;-66
2022/07/06 16:24:23;;;;;;;2.10;1.90;;;25.00;60.50;;;;;;5014609;28;20511;-66
2022/07/06 16:26:49;;;;;;;2.33;2.20;;;24.90;60.10;;;;;;5013932;28;20460;-65
2022/07/06 16:29:16;;;;;;;2.33;2.00;;;24.80;59.90;;;;;;5014434;28;20445;-66
2022/07/06 16:31:43;;;;;;;4.30;2.07;;;24.90;58.90;;;;;;5014053;28;20481;-66
2022/07/06 16:34:11;;;;;;;3.33;1.80;;;24.90;59.00;;;;;;5014346;28;20464;-66
2022/07/06 16:36:37;;;;;;;2.00;1.90;;;24.90;59.10;;;;;;5014476;28;20453;-64
2022/07/06 16:39:04;;;;;;;2.27;1.70;;;25.00;59.40;;;;;;5014216;28;20507;-65
2022/07/06 16:41:31;;;;;;;3.60;2.90;;;25.10;59.40;;;;;;5013690;28;20472;-66
2022/07/06 16:43:58;;;;;;;3.77;2.10;;;25.10;59.10;;;;;;5014193;28;20453;-65
2022/07/06 16:46:24;;;;;;;3.03;1.67;;;25.20;58.20;;;;;;5014151;28;20552;-65
2022/07/06 16:48:51;;;;;;;4.90;2.03;;;25.20;57.50;;;;;;5013834;28;20457;-66
2022/07/06 16:51:19;;;;;;;2.00;1.90;;;25.00;57.10;;;;;;5013844;28;20504;-65
2022/07/06 16:53:46;;;;;;;2.20;2.00;;;24.80;57.50;;;;;;5014524;28;20453;-65
2022/07/06 16:56:12;;;;;;;2.37;2.17;;;24.60;58.20;;;;;;5014109;28;20552;-66